All Spectrum Aviation - Van Nuys Airport - KVNY

HOME

Condor Squadron KVNY Webcam

Visit our Electronics Store

Condor Squadron Webcam - Van Nuys Airport - KVNY
Picture taken: Sat, 22 Feb 2020 21:13:24 -0800
YouTube Channel!    Latest Timelapse Movie    Full Size Image    Regular Size Image    

2020/02/23 04:51 KVNY 230451Z 00000KT 10SM BKN033 12/08 A3011 RMK AO2 SLP192 T01220078

HOME

Condor Squadron KVNY Webcam

Visit our Electronics Store